createdAt,value
2017-11-14T00:00:08.332Z,98561.09
2017-11-14T00:02:36.642Z,98562.12
2017-11-14T00:05:04.983Z,98568.64
2017-11-14T00:07:33.270Z,98563.55
2017-11-14T00:10:02.318Z,98570.77
2017-11-14T00:12:30.597Z,98572.55
2017-11-14T00:14:58.922Z,98578.56
2017-11-14T00:17:27.205Z,98585.93
2017-11-14T00:19:55.490Z,98587.53
2017-11-14T00:22:23.790Z,98592.48
2017-11-14T00:24:52.123Z,98582.36
2017-11-14T00:27:20.421Z,98583.42
2017-11-14T00:29:48.705Z,98580.06
2017-11-14T00:32:16.985Z,98579.80
2017-11-14T00:34:45.269Z,98586.64
2017-11-14T00:37:13.563Z,98586.84
2017-11-14T00:39:41.853Z,98587.97
2017-11-14T00:42:10.150Z,98587.44
2017-11-14T00:44:38.439Z,98590.16
2017-11-14T00:47:06.742Z,98585.26
2017-11-14T00:49:35.034Z,98590.05
2017-11-14T00:52:03.317Z,98589.50
2017-11-14T00:54:31.601Z,98590.63
2017-11-14T00:56:59.897Z,98583.69
2017-11-14T00:59:28.236Z,98583.95
2017-11-14T01:01:56.523Z,98582.71
2017-11-14T01:04:25.934Z,98581.42
2017-11-14T01:06:54.217Z,98577.79
2017-11-14T01:09:22.510Z,98582.42
2017-11-14T01:11:50.801Z,98597.87
2017-11-14T01:14:19.858Z,98588.77
2017-11-14T01:16:48.150Z,98590.52
2017-11-14T01:19:16.461Z,98592.15
2017-11-14T01:21:44.750Z,98595.61
2017-11-14T01:24:13.029Z,98598.34
2017-11-14T01:26:41.910Z,98598.64
2017-11-14T01:29:10.197Z,98602.60
2017-11-14T01:31:38.480Z,98602.22
2017-11-14T01:34:06.765Z,98604.34
2017-11-14T01:36:35.048Z,98599.32
2017-11-14T01:39:03.362Z,98593.82
2017-11-14T01:41:32.418Z,98593.77
2017-11-14T01:44:00.706Z,98592.69
2017-11-14T01:46:28.984Z,98594.00
2017-11-14T01:48:57.578Z,98596.27
2017-11-14T01:51:26.437Z,98593.77
2017-11-14T01:53:55.202Z,98588.84
2017-11-14T01:56:23.484Z,98584.05
2017-11-14T01:58:51.778Z,98582.62
2017-11-14T02:01:20.066Z,98582.11
2017-11-14T02:03:48.362Z,98579.30
2017-11-14T02:06:16.657Z,98586.30
2017-11-14T02:08:45.705Z,98585.73
2017-11-14T02:11:13.989Z,98591.24
2017-11-14T02:13:42.281Z,98600.91
2017-11-14T02:16:10.570Z,98595.98
2017-11-14T02:18:38.875Z,98597.73
2017-11-14T02:21:08.052Z,98603.39
2017-11-14T02:23:36.386Z,98598.87
2017-11-14T02:26:04.677Z,98600.38
2017-11-14T02:28:32.977Z,98598.65
2017-11-14T02:31:02.030Z,98599.88
2017-11-14T02:33:30.315Z,98602.34
2017-11-14T02:35:58.593Z,98604.65
2017-11-14T02:38:26.882Z,98610.45
2017-11-14T02:40:55.164Z,98615.64
2017-11-14T02:43:23.453Z,98620.99
2017-11-14T02:45:52.518Z,98618.04
2017-11-14T02:48:20.801Z,98614.09
2017-11-14T02:50:49.081Z,98622.77
2017-11-14T02:53:17.365Z,98628.17
2017-11-14T02:55:45.659Z,98627.42
2017-11-14T02:58:13.942Z,98626.45
2017-11-14T03:00:42.227Z,98628.66
2017-11-14T03:03:10.507Z,98637.22
2017-11-14T03:05:38.797Z,98636.73
2017-11-14T03:08:07.083Z,98643.98
2017-11-14T03:10:35.421Z,98643.15
2017-11-14T03:13:04.490Z,98645.23
2017-11-14T03:15:32.779Z,98638.73
2017-11-14T03:18:02.506Z,98645.33
2017-11-14T03:20:31.598Z,98641.71
2017-11-14T03:23:00.650Z,98636.85
2017-11-14T03:25:29.007Z,98623.80
2017-11-14T03:27:57.310Z,98627.61
2017-11-14T03:30:25.615Z,98623.23
2017-11-14T03:32:53.903Z,98627.16
2017-11-14T03:35:23.138Z,98629.58
2017-11-14T03:37:51.413Z,98632.97
2017-11-14T03:40:19.724Z,98634.91
2017-11-14T03:42:48.014Z,98637.02
2017-11-14T03:45:17.083Z,98643.58
2017-11-14T03:47:45.406Z,98640.29
2017-11-14T03:50:14.478Z,98642.37
2017-11-14T03:52:42.803Z,98644.20
2017-11-14T03:55:11.082Z,98645.71
2017-11-14T03:57:39.365Z,98652.42
2017-11-14T04:00:07.689Z,98650.19
2017-11-14T04:02:36.041Z,98644.98
2017-11-14T04:05:04.338Z,98647.91
2017-11-14T04:07:32.623Z,98656.27
2017-11-14T04:10:00.929Z,98653.97
2017-11-14T04:12:29.238Z,98659.82
2017-11-14T04:14:57.521Z,98663.19
2017-11-14T04:17:25.821Z,98663.91
2017-11-14T04:19:54.115Z,98668.34
2017-11-14T04:22:22.413Z,98677.67
2017-11-14T04:24:50.705Z,98677.17
2017-11-14T04:27:18.993Z,98679.83
2017-11-14T04:29:47.298Z,98674.17
2017-11-14T04:32:15.641Z,98684.23
2017-11-14T04:34:43.923Z,98684.70
2017-11-14T04:37:12.210Z,98685.64
2017-11-14T04:39:40.493Z,98687.10
2017-11-14T04:42:08.781Z,98677.94
2017-11-14T04:44:37.081Z,98679.94
2017-11-14T04:47:05.370Z,98680.36
2017-11-14T04:49:34.606Z,98682.30
2017-11-14T04:52:02.901Z,98690.94
2017-11-14T04:54:31.180Z,98687.08
2017-11-14T04:56:59.461Z,98687.02
2017-11-14T04:59:27.749Z,98696.63
2017-11-14T05:01:56.840Z,98695.91
2017-11-14T05:04:25.118Z,98694.34
2017-11-14T05:06:54.171Z,98694.70
2017-11-14T05:09:22.467Z,98693.91
2017-11-14T05:11:50.762Z,98697.50
2017-11-14T05:14:19.080Z,98707.02
2017-11-14T05:16:47.974Z,98709.59
2017-11-14T05:19:16.284Z,98715.77
2017-11-14T05:21:44.593Z,98708.23
2017-11-14T05:24:12.873Z,98700.95
2017-11-14T05:26:41.157Z,98704.48
2017-11-14T05:29:09.447Z,98709.78
2017-11-14T05:31:44.714Z,98703.41
2017-11-14T05:34:13.029Z,98708.37
2017-11-14T05:36:42.063Z,98702.85
2017-11-14T05:39:10.340Z,98709.95
2017-11-14T05:41:38.635Z,98713.84
2017-11-14T05:44:06.909Z,98717.09
2017-11-14T05:46:35.201Z,98715.30
2017-11-14T05:49:03.492Z,98729.06
2017-11-14T05:51:31.783Z,98723.62
2017-11-14T05:54:00.068Z,98728.53
2017-11-14T05:56:29.110Z,98730.97
2017-11-14T05:58:57.419Z,98728.11
2017-11-14T06:01:25.719Z,98729.52
2017-11-14T06:03:54.041Z,98726.89
2017-11-14T06:06:22.326Z,98734.13
2017-11-14T06:08:50.629Z,98731.52
2017-11-14T06:11:19.733Z,98735.55
2017-11-14T06:13:48.368Z,98736.22
2017-11-14T06:16:16.658Z,98733.88
2017-11-14T06:18:44.974Z,98737.48
2017-11-14T06:21:13.276Z,98740.32
2017-11-14T06:23:41.575Z,98744.59
2017-11-14T06:26:10.050Z,98743.92
2017-11-14T06:28:38.342Z,98745.13
2017-11-14T06:31:06.628Z,98739.37
2017-11-14T06:33:36.628Z,98739.88
2017-11-14T06:36:04.913Z,98740.89
2017-11-14T06:38:33.196Z,98739.90
2017-11-14T06:41:01.490Z,98741.75
2017-11-14T06:43:29.781Z,98744.35
2017-11-14T06:45:58.854Z,98740.56
2017-11-14T06:48:27.120Z,98745.64
2017-11-14T06:50:55.713Z,98752.17
2017-11-14T06:53:23.989Z,98747.75
2017-11-14T06:55:52.289Z,98750.56
2017-11-14T06:58:21.341Z,98755.45
2017-11-14T07:00:49.645Z,98761.70
2017-11-14T07:03:17.929Z,98756.09
2017-11-14T07:05:46.255Z,98761.08
2017-11-14T07:08:14.530Z,98767.09
2017-11-14T07:10:42.826Z,98781.27
2017-11-14T07:13:11.113Z,98775.26
2017-11-14T07:15:40.641Z,98773.03
2017-11-14T07:18:08.961Z,98779.48
2017-11-14T07:20:37.249Z,98783.36
2017-11-14T07:23:05.555Z,98787.01
2017-11-14T07:25:33.837Z,98797.56
2017-11-14T07:28:02.117Z,98795.31
2017-11-14T07:30:30.401Z,98796.00
2017-11-14T07:32:58.686Z,98788.05
2017-11-14T07:35:27.517Z,98789.79
2017-11-14T07:37:55.836Z,98789.34
2017-11-14T07:40:24.154Z,98793.80
2017-11-14T07:42:52.445Z,98801.17
2017-11-14T07:45:20.741Z,98809.49
2017-11-14T07:47:49.043Z,98810.56
2017-11-14T07:50:17.330Z,98805.84
2017-11-14T07:52:46.402Z,98806.97
2017-11-14T07:55:14.732Z,98808.06
2017-11-14T07:57:43.017Z,98811.62
2017-11-14T08:00:11.312Z,98814.61
2017-11-14T08:02:39.598Z,98817.83
2017-11-14T08:05:07.955Z,98818.83
2017-11-14T08:07:36.242Z,98818.78
2017-11-14T08:10:04.532Z,98823.92
2017-11-14T08:12:32.846Z,98821.47
2017-11-14T08:15:01.178Z,98817.86
2017-11-14T08:17:29.481Z,98820.26
2017-11-14T08:19:57.787Z,98821.98
2017-11-14T08:22:26.082Z,98825.48
2017-11-14T08:24:55.160Z,98833.14
2017-11-14T08:27:24.207Z,98835.86
2017-11-14T08:29:52.489Z,98828.41
2017-11-14T08:32:21.213Z,98834.33
2017-11-14T08:34:50.253Z,98830.63
2017-11-14T08:37:18.541Z,98841.59
2017-11-14T08:39:46.827Z,98825.11
2017-11-14T08:42:15.137Z,98830.48
2017-11-14T08:44:43.426Z,98834.84
2017-11-14T08:47:11.730Z,98840.61
2017-11-14T08:49:40.030Z,98831.52
2017-11-14T08:52:08.314Z,98833.03
2017-11-14T08:54:36.609Z,98830.71
2017-11-14T08:57:05.666Z,98817.73
2017-11-14T08:59:34.116Z,98813.91
2017-11-14T09:02:03.498Z,98820.35
2017-11-14T09:04:31.986Z,98820.92
2017-11-14T09:07:00.258Z,98814.78
2017-11-14T09:09:28.614Z,98817.97
2017-11-14T09:11:57.670Z,98821.91
2017-11-14T09:14:26.009Z,98816.90
2017-11-14T09:16:54.300Z,98818.99
2017-11-14T09:19:22.679Z,98820.47
2017-11-14T09:21:51.061Z,98816.55
2017-11-14T09:24:19.374Z,98820.05
2017-11-14T09:26:48.565Z,98828.53
2017-11-14T09:29:17.027Z,98820.44
2017-11-14T09:31:45.435Z,98812.78
2017-11-14T09:34:13.806Z,98795.31
2017-11-14T09:36:42.966Z,98803.75
2017-11-14T09:39:11.274Z,98812.60
2017-11-14T09:41:39.603Z,98817.90
2017-11-14T09:44:07.888Z,98813.80
2017-11-14T09:46:36.292Z,98811.53
2017-11-14T09:49:04.658Z,98816.98
2017-11-14T09:51:33.082Z,98816.55
2017-11-14T09:54:01.571Z,98818.96
2017-11-14T09:56:30.029Z,98818.13
2017-11-14T09:58:58.376Z,98815.70
2017-11-14T10:01:26.713Z,98819.24
2017-11-14T10:03:55.003Z,98819.80
2017-11-14T10:06:23.320Z,98819.77
2017-11-14T10:08:51.633Z,98827.55
2017-11-14T10:11:19.914Z,98826.79
2017-11-14T10:13:49.377Z,98827.88
2017-11-14T10:16:17.665Z,98824.24
2017-11-14T10:18:45.941Z,98814.28
2017-11-14T10:21:14.234Z,98819.39
2017-11-14T10:23:42.526Z,98816.86
2017-11-14T10:26:11.577Z,98820.28
2017-11-14T10:28:39.881Z,98820.70
2017-11-14T10:31:08.153Z,98824.27
2017-11-14T10:33:36.434Z,98818.16
2017-11-14T10:36:04.730Z,98820.95
2017-11-14T10:38:33.787Z,98811.37
2017-11-14T10:41:02.066Z,98809.97
2017-11-14T10:43:30.370Z,98802.91
2017-11-14T10:45:58.787Z,98808.89
2017-11-14T10:48:27.078Z,98807.89
2017-11-14T10:50:55.374Z,98808.67
2017-11-14T10:53:23.658Z,98801.86
2017-11-14T10:55:51.959Z,98806.64
2017-11-14T10:58:20.262Z,98801.43
2017-11-14T11:00:48.547Z,98809.05
2017-11-14T11:03:16.847Z,98805.69
2017-11-14T11:05:45.150Z,98814.36
2017-11-14T11:08:13.451Z,98805.64
2017-11-14T11:10:41.754Z,98806.36
2017-11-14T11:13:10.039Z,98806.69
2017-11-14T11:15:38.345Z,98802.47
2017-11-14T11:18:06.663Z,98797.65
2017-11-14T11:20:35.779Z,98800.25
2017-11-14T11:23:04.065Z,98802.61
2017-11-14T11:25:32.341Z,98798.78
2017-11-14T11:28:00.940Z,98779.31
2017-11-14T11:30:30.007Z,98804.11
2017-11-14T11:32:58.539Z,98811.75
2017-11-14T11:35:26.958Z,98811.45
2017-11-14T11:37:56.337Z,98816.23
2017-11-14T11:40:25.392Z,98821.62
2017-11-14T11:42:53.674Z,98810.17
2017-11-14T11:45:21.970Z,98808.99
2017-11-14T11:47:50.502Z,98807.30
2017-11-14T11:50:18.850Z,98795.52
2017-11-14T11:52:47.914Z,98794.63
2017-11-14T11:55:16.255Z,98788.90
2017-11-14T11:57:44.627Z,98779.19
2017-11-14T12:00:13.202Z,98789.50
2017-11-14T12:02:41.525Z,98777.23
2017-11-14T12:05:09.830Z,98783.67
2017-11-14T12:07:38.117Z,98774.94
2017-11-14T12:10:07.179Z,98772.46
2017-11-14T12:12:35.522Z,98773.25
2017-11-14T12:15:03.827Z,98775.92
2017-11-14T12:17:32.109Z,98778.98
2017-11-14T12:20:01.679Z,98762.86
2017-11-14T12:22:29.980Z,98754.95
2017-11-14T12:24:58.256Z,98764.47
2017-11-14T12:27:26.550Z,98768.39
2017-11-14T12:29:55.249Z,98760.48
2017-11-14T12:32:23.524Z,98761.88
2017-11-14T12:34:51.814Z,98757.49
2017-11-14T12:37:20.864Z,98753.95
2017-11-14T12:39:49.153Z,98757.83
2017-11-14T12:42:17.443Z,98769.89
2017-11-14T12:44:45.743Z,98772.79
2017-11-14T12:47:14.030Z,98780.33
2017-11-14T12:49:42.326Z,98779.72
2017-11-14T12:52:10.614Z,98767.88
2017-11-14T12:54:38.909Z,98772.79
2017-11-14T12:57:07.201Z,98765.13
2017-11-14T12:59:35.483Z,98760.45
2017-11-14T13:02:04.708Z,98769.29
2017-11-14T13:04:33.003Z,98770.89
2017-11-14T13:07:01.290Z,98764.89
2017-11-14T13:09:29.591Z,98763.88
2017-11-14T13:11:57.882Z,98758.97
2017-11-14T13:14:26.174Z,98753.25
2017-11-14T13:16:55.222Z,98759.02
2017-11-14T13:19:23.534Z,98752.07
2017-11-14T13:21:52.590Z,98744.16
2017-11-14T13:24:20.886Z,98735.25
2017-11-14T13:26:49.171Z,98734.44
2017-11-14T13:29:17.458Z,98733.03
2017-11-14T13:31:45.750Z,98725.28
2017-11-14T13:34:14.054Z,98721.82
2017-11-14T13:36:43.067Z,98723.31
2017-11-14T13:39:11.382Z,98722.46
2017-11-14T13:41:40.442Z,98718.58
2017-11-14T13:44:08.730Z,98717.39
2017-11-14T13:46:37.022Z,98717.52
2017-11-14T13:49:05.353Z,98722.66
2017-11-14T13:51:33.634Z,98733.63
2017-11-14T13:54:01.913Z,98727.66
2017-11-14T13:56:30.200Z,98727.50
2017-11-14T13:58:58.477Z,98736.92
2017-11-14T14:01:26.761Z,98731.06
2017-11-14T14:03:55.029Z,98739.59
2017-11-14T14:06:23.324Z,98735.47
2017-11-14T14:08:51.626Z,98730.41
2017-11-14T14:11:19.920Z,98737.70
2017-11-14T14:13:48.210Z,98726.80
2017-11-14T14:16:17.867Z,98727.95
2017-11-14T14:18:46.191Z,98734.48
2017-11-14T14:21:14.487Z,98725.17
2017-11-14T14:23:42.783Z,98724.33
2017-11-14T14:26:11.078Z,98712.29
2017-11-14T14:28:39.395Z,98714.59
2017-11-14T14:31:07.696Z,98709.53
2017-11-14T14:33:35.986Z,98708.66
2017-11-14T14:36:04.272Z,98701.24
2017-11-14T14:38:32.567Z,98702.16
2017-11-14T14:41:01.640Z,98701.11
2017-11-14T14:43:29.926Z,98697.59
2017-11-14T14:45:58.249Z,98698.19
2017-11-14T14:48:26.528Z,98700.33
2017-11-14T14:50:54.809Z,98697.77
2017-11-14T14:53:23.110Z,98706.43
2017-11-14T14:55:51.434Z,98715.38
2017-11-14T14:58:20.505Z,98722.33
2017-11-14T15:00:48.785Z,98722.20
2017-11-14T15:03:17.075Z,98721.31
2017-11-14T15:05:46.131Z,98733.61
2017-11-14T15:08:14.426Z,98732.33
2017-11-14T15:10:42.716Z,98731.48
2017-11-14T15:13:11.771Z,98732.05
2017-11-14T15:15:40.068Z,98733.42
2017-11-14T15:18:08.358Z,98733.33
2017-11-14T15:20:36.658Z,98733.09
2017-11-14T15:23:04.940Z,98732.23
2017-11-14T15:25:33.251Z,98730.97
2017-11-14T15:28:01.528Z,98735.73
2017-11-14T15:30:29.800Z,98732.77
2017-11-14T15:32:58.097Z,98734.70
2017-11-14T15:35:26.382Z,98738.16
2017-11-14T15:37:54.681Z,98741.56
2017-11-14T15:40:23.722Z,98738.80
2017-11-14T15:42:52.018Z,98740.61
2017-11-14T15:45:20.309Z,98745.67
2017-11-14T15:47:48.599Z,98757.06
2017-11-14T15:50:16.898Z,98755.42
2017-11-14T15:52:45.178Z,98759.45
2017-11-14T15:55:14.638Z,98747.53
2017-11-14T15:57:42.929Z,98759.45
2017-11-14T16:00:11.222Z,98762.28
2017-11-14T16:02:40.303Z,98760.16
2017-11-14T16:05:08.601Z,98765.84
2017-11-14T16:07:36.883Z,98760.36
2017-11-14T16:10:05.173Z,98769.72
2017-11-14T16:12:33.450Z,98765.90
2017-11-14T16:15:01.746Z,98766.68
2017-11-14T16:17:30.032Z,98767.28
2017-11-14T16:19:58.344Z,98763.90
2017-11-14T16:22:26.621Z,98768.57
2017-11-14T16:24:55.672Z,98773.98
2017-11-14T16:27:23.960Z,98778.43
2017-11-14T16:29:52.269Z,98784.13
2017-11-14T16:32:21.330Z,98773.23
2017-11-14T16:34:50.315Z,98774.58
2017-11-14T16:37:18.611Z,98779.69
2017-11-14T16:39:46.903Z,98781.33
2017-11-14T16:42:15.198Z,98783.83
2017-11-14T16:44:43.478Z,98785.77
2017-11-14T16:47:11.786Z,98785.00
2017-11-14T16:49:40.067Z,98786.76
2017-11-14T16:52:08.358Z,98784.62
2017-11-14T16:54:36.658Z,98790.94
2017-11-14T16:57:04.963Z,98794.66
2017-11-14T16:59:33.245Z,98784.80
2017-11-14T17:02:01.554Z,98799.94
2017-11-14T17:04:29.843Z,98802.13
2017-11-14T17:06:58.143Z,98803.73
2017-11-14T17:09:27.204Z,98805.33
2017-11-14T17:11:55.482Z,98808.88
2017-11-14T17:14:23.770Z,98809.58
2017-11-14T17:16:52.059Z,98805.59
2017-11-14T17:19:20.356Z,98803.76
2017-11-14T17:21:48.647Z,98796.65
2017-11-14T17:24:16.941Z,98796.83
2017-11-14T17:26:46.234Z,98794.47
2017-11-14T17:29:14.528Z,98798.92
2017-11-14T17:31:42.820Z,98804.75
2017-11-14T17:34:11.114Z,98801.98
2017-11-14T17:36:40.238Z,98805.17
2017-11-14T17:39:08.559Z,98807.09
2017-11-14T17:41:36.845Z,98806.62
2017-11-14T17:44:05.137Z,98803.77
2017-11-14T17:46:33.502Z,98803.14
2017-11-14T17:49:01.799Z,98795.49
2017-11-14T17:51:30.186Z,98800.89
2017-11-14T17:53:58.661Z,98801.94
2017-11-14T17:56:27.514Z,98800.62
2017-11-14T17:58:55.961Z,98803.02
2017-11-14T18:01:24.284Z,98804.09
2017-11-14T18:03:52.569Z,98814.30
2017-11-14T18:06:21.856Z,98811.73
2017-11-14T18:08:50.230Z,98823.91
2017-11-14T18:11:18.694Z,98823.84
2017-11-14T18:13:47.560Z,98826.11
2017-11-14T18:16:16.570Z,98837.59
2017-11-14T18:18:47.544Z,98840.34
2017-11-14T18:21:16.114Z,98840.77
2017-11-14T18:23:45.674Z,98836.23
2017-11-14T18:26:15.031Z,98841.47
2017-11-14T18:28:44.538Z,98844.44
2017-11-14T18:31:14.086Z,98841.41
2017-11-14T18:33:43.177Z,98845.27
2017-11-14T18:36:12.698Z,98845.22
2017-11-14T18:38:43.484Z,98852.09
2017-11-14T18:41:13.377Z,98855.16
2017-11-14T18:43:42.316Z,98851.14
2017-11-14T18:46:11.759Z,98848.73
2017-11-14T18:48:40.727Z,98855.77
2017-11-14T18:51:09.978Z,98856.66
2017-11-14T18:53:39.943Z,98866.64
2017-11-14T18:56:09.848Z,98863.25
2017-11-14T18:58:39.636Z,98867.56
2017-11-14T19:01:09.456Z,98867.79
2017-11-14T19:03:39.209Z,98862.36
2017-11-14T19:06:09.059Z,98864.83
2017-11-14T19:08:38.910Z,98866.17
2017-11-14T19:11:08.638Z,98874.42
2017-11-14T19:13:38.405Z,98871.44
2017-11-14T19:16:08.209Z,98866.22
2017-11-14T19:18:38.423Z,98868.68
2017-11-14T19:21:08.287Z,98869.32
2017-11-14T19:23:38.154Z,98875.35
2017-11-14T19:26:08.059Z,98881.30
2017-11-14T19:28:37.970Z,98867.69
2017-11-14T19:31:07.882Z,98872.46
2017-11-14T19:33:37.749Z,98878.98
2017-11-14T19:36:07.607Z,98877.34
2017-11-14T19:38:37.593Z,98878.33
2017-11-14T19:41:08.229Z,98881.14
2017-11-14T19:43:38.038Z,98884.12
2017-11-14T19:46:08.694Z,98886.00
2017-11-14T19:48:38.603Z,98889.52
2017-11-14T19:51:08.555Z,98889.94
2017-11-14T19:53:38.442Z,98891.73
2017-11-14T19:56:08.342Z,98897.52
2017-11-14T19:58:38.255Z,98897.05
2017-11-14T20:01:08.719Z,98893.70
2017-11-14T20:03:38.610Z,98904.63
2017-11-14T20:06:08.455Z,98901.86
2017-11-14T20:08:38.366Z,98903.64
2017-11-14T20:11:08.445Z,98904.98
2017-11-14T20:13:38.376Z,98906.70
2017-11-14T20:16:08.462Z,98897.98
2017-11-14T20:18:39.138Z,98902.65
2017-11-14T20:21:09.230Z,98903.87
2017-11-14T20:23:39.241Z,98902.85
2017-11-14T20:26:09.153Z,98903.56
2017-11-14T20:28:39.055Z,98897.98
2017-11-14T20:31:09.047Z,98897.03
2017-11-14T20:33:38.885Z,98903.65
2017-11-14T20:36:08.745Z,98902.36
2017-11-14T20:38:38.627Z,98900.86
2017-11-14T20:41:08.485Z,98899.09
2017-11-14T20:43:38.335Z,98896.78
2017-11-14T20:49:08.290Z,98902.22
2017-11-14T20:51:38.225Z,98896.97
2017-11-14T20:54:08.027Z,98899.64
2017-11-14T20:56:37.839Z,98903.77
2017-11-14T20:59:08.595Z,98905.77
2017-11-14T21:01:38.373Z,98907.38
2017-11-14T21:04:08.206Z,98902.57
2017-11-14T21:06:38.152Z,98905.34
2017-11-14T21:09:07.958Z,98901.00
2017-11-14T21:11:38.229Z,98908.79
2017-11-14T21:14:08.127Z,98905.56
2017-11-14T21:16:38.731Z,98903.09
2017-11-14T21:19:08.769Z,98907.05
2017-11-14T21:21:39.363Z,98908.95
2017-11-14T21:24:09.242Z,98915.12
2017-11-14T21:26:39.076Z,98918.44
2017-11-14T21:29:08.947Z,98919.55
2017-11-14T21:31:39.529Z,98927.03
2017-11-14T21:34:09.358Z,98914.92
2017-11-14T21:36:39.383Z,98910.78
2017-11-14T21:39:09.153Z,98912.91
2017-11-14T21:41:38.877Z,98908.81
2017-11-14T21:44:08.673Z,98906.69
2017-11-14T21:46:38.407Z,98909.09
2017-11-14T21:49:08.799Z,98898.80
2017-11-14T21:51:38.503Z,98896.45
2017-11-14T21:54:08.269Z,98895.67
2017-11-14T21:56:37.995Z,98895.13
2017-11-14T21:59:07.690Z,98893.97
2017-11-14T22:01:37.039Z,98897.03
2017-11-14T22:04:05.432Z,98898.48
2017-11-14T22:06:35.205Z,98897.34
2017-11-14T22:09:03.533Z,98896.19
2017-11-14T22:11:31.822Z,98897.10
2017-11-14T22:14:00.123Z,98899.46
2017-11-14T22:16:28.405Z,98907.83
2017-11-14T22:18:56.703Z,98905.75
2017-11-14T22:21:24.990Z,98910.95
2017-11-14T22:23:53.264Z,98901.16
2017-11-14T22:26:21.843Z,98911.34
2017-11-14T22:28:50.213Z,98910.52
2017-11-14T22:31:18.496Z,98903.56
2017-11-14T22:33:46.765Z,98906.75
2017-11-14T22:36:15.050Z,98905.28
2017-11-14T22:38:43.333Z,98903.75
2017-11-14T22:41:11.617Z,98898.72
2017-11-14T22:43:39.882Z,98902.14
2017-11-14T22:46:08.168Z,98904.91
2017-11-14T22:48:36.815Z,98904.48
2017-11-14T22:51:05.104Z,98902.95
2017-11-14T22:53:33.383Z,98899.12
2017-11-14T22:56:01.663Z,98900.48
2017-11-14T22:58:29.938Z,98903.10
2017-11-14T23:00:58.205Z,98906.91
2017-11-14T23:03:26.463Z,98906.80
2017-11-14T23:05:54.727Z,98906.81
2017-11-14T23:08:25.465Z,98904.64
2017-11-14T23:10:53.797Z,98906.86
2017-11-14T23:13:22.081Z,98913.13
2017-11-14T23:15:50.446Z,98905.16
2017-11-14T23:18:18.782Z,98912.70
2017-11-14T23:20:47.070Z,98911.52
2017-11-14T23:23:16.837Z,98910.91
2017-11-14T23:25:45.123Z,98913.13
2017-11-14T23:28:13.408Z,98908.39
2017-11-14T23:30:41.717Z,98909.84
2017-11-14T23:33:10.002Z,98914.88
2017-11-14T23:35:38.328Z,98912.86
2017-11-14T23:38:06.617Z,98917.81
2017-11-14T23:40:34.895Z,98918.75
2017-11-14T23:43:03.407Z,98920.19
2017-11-14T23:45:31.683Z,98917.45
2017-11-14T23:47:59.966Z,98919.44
2017-11-14T23:50:28.242Z,98925.74
2017-11-14T23:52:56.530Z,98917.47
2017-11-14T23:55:24.821Z,98926.47
2017-11-14T23:57:53.128Z,98933.42
